sensor_id;sensor_type;location;lat;lon;timestamp;P1;durP1;ratioP1;P2;durP2;ratioP2
69856;SDS011;57147;53.582;10.112;2022-08-19T00:03:08;19.40;;;14.55;;
69856;SDS011;57147;53.582;10.112;2022-08-19T00:08:12;17.17;;;13.80;;
69856;SDS011;57147;53.582;10.112;2022-08-19T00:13:12;19.42;;;14.55;;
69856;SDS011;57147;53.582;10.112;2022-08-19T00:18:13;24.13;;;15.77;;
69856;SDS011;57147;53.582;10.112;2022-08-19T00:23:16;27.58;;;19.00;;
69856;SDS011;57147;53.582;10.112;2022-08-19T00:28:17;28.42;;;17.92;;
69856;SDS011;57147;53.582;10.112;2022-08-19T00:33:18;27.58;;;19.10;;
69856;SDS011;57147;53.582;10.112;2022-08-19T00:38:21;30.73;;;20.55;;
69856;SDS011;57147;53.582;10.112;2022-08-19T00:43:23;30.13;;;18.23;;
69856;SDS011;57147;53.582;10.112;2022-08-19T00:48:24;31.52;;;19.27;;
69856;SDS011;57147;53.582;10.112;2022-08-19T00:53:29;31.92;;;21.50;;
69856;SDS011;57147;53.582;10.112;2022-08-19T00:58:32;31.05;;;19.50;;
69856;SDS011;57147;53.582;10.112;2022-08-19T01:03:35;33.80;;;21.20;;
69856;SDS011;57147;53.582;10.112;2022-08-19T01:08:38;33.63;;;20.95;;
69856;SDS011;57147;53.582;10.112;2022-08-19T01:13:38;34.22;;;20.23;;
69856;SDS011;57147;53.582;10.112;2022-08-19T01:18:40;31.95;;;19.35;;
69856;SDS011;57147;53.582;10.112;2022-08-19T01:23:45;31.90;;;20.30;;
69856;SDS011;57147;53.582;10.112;2022-08-19T01:28:46;30.58;;;20.08;;
69856;SDS011;57147;53.582;10.112;2022-08-19T01:33:49;28.27;;;18.50;;
69856;SDS011;57147;53.582;10.112;2022-08-19T01:38:55;29.63;;;19.52;;
69856;SDS011;57147;53.582;10.112;2022-08-19T01:43:56;28.90;;;18.80;;
69856;SDS011;57147;53.582;10.112;2022-08-19T01:48:57;26.52;;;16.40;;
69856;SDS011;57147;53.582;10.112;2022-08-19T01:54:01;30.73;;;19.80;;
69856;SDS011;57147;53.582;10.112;2022-08-19T01:59:02;29.77;;;19.15;;
69856;SDS011;57147;53.582;10.112;2022-08-19T02:04:08;26.50;;;18.27;;
69856;SDS011;57147;53.582;10.112;2022-08-19T02:09:11;28.10;;;18.63;;
69856;SDS011;57147;53.582;10.112;2022-08-19T02:14:12;30.75;;;19.75;;
69856;SDS011;57147;53.582;10.112;2022-08-19T02:19:13;29.25;;;18.33;;
69856;SDS011;57147;53.582;10.112;2022-08-19T02:24:16;29.98;;;19.38;;
69856;SDS011;57147;53.582;10.112;2022-08-19T02:29:17;34.78;;;21.42;;
69856;SDS011;57147;53.582;10.112;2022-08-19T02:34:17;36.10;;;20.70;;
69856;SDS011;57147;53.582;10.112;2022-08-19T02:39:20;30.73;;;17.90;;
69856;SDS011;57147;53.582;10.112;2022-08-19T02:44:21;37.55;;;21.60;;
69856;SDS011;57147;53.582;10.112;2022-08-19T02:49:22;36.55;;;20.92;;
69856;SDS011;57147;53.582;10.112;2022-08-19T02:54:25;33.90;;;19.55;;
69856;SDS011;57147;53.582;10.112;2022-08-19T02:59:25;29.90;;;18.85;;
69856;SDS011;57147;53.582;10.112;2022-08-19T03:04:31;35.25;;;19.15;;
69856;SDS011;57147;53.582;10.112;2022-08-19T03:09:38;37.53;;;21.00;;
69856;SDS011;57147;53.582;10.112;2022-08-19T03:14:39;39.55;;;22.88;;
69856;SDS011;57147;53.582;10.112;2022-08-19T03:19:40;35.55;;;20.13;;
69856;SDS011;57147;53.582;10.112;2022-08-19T03:24:45;43.00;;;20.85;;
69856;SDS011;57147;53.582;10.112;2022-08-19T03:29:45;39.80;;;20.98;;
69856;SDS011;57147;53.582;10.112;2022-08-19T03:34:46;43.70;;;23.13;;
69856;SDS011;57147;53.582;10.112;2022-08-19T03:39:49;41.47;;;22.17;;
69856;SDS011;57147;53.582;10.112;2022-08-19T03:44:50;41.80;;;21.83;;
69856;SDS011;57147;53.582;10.112;2022-08-19T03:49:50;40.30;;;20.83;;
69856;SDS011;57147;53.582;10.112;2022-08-19T03:54:59;37.75;;;20.50;;
69856;SDS011;57147;53.582;10.112;2022-08-19T04:00:00;41.95;;;23.55;;
69856;SDS011;57147;53.582;10.112;2022-08-19T04:05:02;31.15;;;19.48;;
69856;SDS011;57147;53.582;10.112;2022-08-19T04:10:06;36.33;;;20.08;;
69856;SDS011;57147;53.582;10.112;2022-08-19T04:15:07;33.97;;;18.85;;
69856;SDS011;57147;53.582;10.112;2022-08-19T04:20:09;28.92;;;16.83;;
69856;SDS011;57147;53.582;10.112;2022-08-19T04:25:12;28.95;;;17.17;;
69856;SDS011;57147;53.582;10.112;2022-08-19T04:30:13;29.13;;;17.40;;
69856;SDS011;57147;53.582;10.112;2022-08-19T04:35:14;34.15;;;19.80;;
69856;SDS011;57147;53.582;10.112;2022-08-19T04:40:18;36.30;;;21.10;;
69856;SDS011;57147;53.582;10.112;2022-08-19T04:45:19;40.72;;;22.02;;
69856;SDS011;57147;53.582;10.112;2022-08-19T04:50:19;35.15;;;20.50;;
69856;SDS011;57147;53.582;10.112;2022-08-19T04:55:26;43.35;;;22.20;;
69856;SDS011;57147;53.582;10.112;2022-08-19T05:00:27;42.13;;;22.20;;
69856;SDS011;57147;53.582;10.112;2022-08-19T05:05:27;48.67;;;23.98;;
69856;SDS011;57147;53.582;10.112;2022-08-19T05:10:30;52.95;;;26.65;;
69856;SDS011;57147;53.582;10.112;2022-08-19T05:15:32;45.72;;;23.67;;
69856;SDS011;57147;53.582;10.112;2022-08-19T05:20:34;53.65;;;24.90;;
69856;SDS011;57147;53.582;10.112;2022-08-19T05:25:46;51.17;;;26.35;;
69856;SDS011;57147;53.582;10.112;2022-08-19T05:30:46;49.97;;;27.58;;
69856;SDS011;57147;53.582;10.112;2022-08-19T05:46:20;40.38;;;24.58;;
69856;SDS011;57147;53.582;10.112;2022-08-19T05:51:20;44.45;;;24.80;;
69856;SDS011;57147;53.582;10.112;2022-08-19T05:56:24;45.92;;;26.35;;
69856;SDS011;57147;53.582;10.112;2022-08-19T06:01:25;46.83;;;24.65;;
69856;SDS011;57147;53.582;10.112;2022-08-19T06:06:26;39.25;;;23.63;;
69856;SDS011;57147;53.582;10.112;2022-08-19T06:11:34;39.08;;;22.77;;
69856;SDS011;57147;53.582;10.112;2022-08-19T06:16:37;40.85;;;23.23;;
69856;SDS011;57147;53.582;10.112;2022-08-19T06:21:40;41.90;;;22.42;;
69856;SDS011;57147;53.582;10.112;2022-08-19T06:26:46;39.28;;;23.15;;
69856;SDS011;57147;53.582;10.112;2022-08-19T06:31:49;42.90;;;23.38;;
69856;SDS011;57147;53.582;10.112;2022-08-19T06:36:51;36.17;;;23.13;;
69856;SDS011;57147;53.582;10.112;2022-08-19T06:41:56;39.03;;;21.00;;
69856;SDS011;57147;53.582;10.112;2022-08-19T06:46:59;42.42;;;23.55;;
69856;SDS011;57147;53.582;10.112;2022-08-19T06:52:01;37.78;;;19.60;;
69856;SDS011;57147;53.582;10.112;2022-08-19T06:57:06;39.15;;;20.75;;
69856;SDS011;57147;53.582;10.112;2022-08-19T07:02:07;37.53;;;21.65;;
69856;SDS011;57147;53.582;10.112;2022-08-19T07:07:09;35.47;;;18.50;;
69856;SDS011;57147;53.582;10.112;2022-08-19T07:12:16;39.97;;;20.95;;
69856;SDS011;57147;53.582;10.112;2022-08-19T07:17:16;42.42;;;23.58;;
69856;SDS011;57147;53.582;10.112;2022-08-19T07:22:17;39.45;;;22.23;;
69856;SDS011;57147;53.582;10.112;2022-08-19T07:27:20;42.85;;;22.17;;
69856;SDS011;57147;53.582;10.112;2022-08-19T07:32:23;41.72;;;20.35;;
69856;SDS011;57147;53.582;10.112;2022-08-19T07:37:24;44.83;;;23.60;;
69856;SDS011;57147;53.582;10.112;2022-08-19T07:42:27;44.47;;;21.65;;
69856;SDS011;57147;53.582;10.112;2022-08-19T07:47:28;45.05;;;24.65;;
69856;SDS011;57147;53.582;10.112;2022-08-19T07:52:28;40.88;;;23.02;;
69856;SDS011;57147;53.582;10.112;2022-08-19T07:57:32;43.50;;;23.25;;
69856;SDS011;57147;53.582;10.112;2022-08-19T08:02:32;42.22;;;23.63;;
69856;SDS011;57147;53.582;10.112;2022-08-19T08:07:33;41.10;;;23.92;;
69856;SDS011;57147;53.582;10.112;2022-08-19T08:12:38;43.25;;;23.98;;
69856;SDS011;57147;53.582;10.112;2022-08-19T08:17:39;41.97;;;22.10;;
69856;SDS011;57147;53.582;10.112;2022-08-19T08:22:42;45.80;;;24.33;;
69856;SDS011;57147;53.582;10.112;2022-08-19T08:37:48;37.97;;;22.77;;
69856;SDS011;57147;53.582;10.112;2022-08-19T08:42:53;38.08;;;21.60;;
69856;SDS011;57147;53.582;10.112;2022-08-19T08:47:58;32.65;;;19.08;;
69856;SDS011;57147;53.582;10.112;2022-08-19T08:53:02;33.60;;;19.08;;
69856;SDS011;57147;53.582;10.112;2022-08-19T08:58:09;31.65;;;19.63;;
69856;SDS011;57147;53.582;10.112;2022-08-19T09:03:16;31.75;;;20.20;;
69856;SDS011;57147;53.582;10.112;2022-08-19T09:08:21;29.25;;;18.08;;
69856;SDS011;57147;53.582;10.112;2022-08-19T09:13:35;32.05;;;18.38;;
69856;SDS011;57147;53.582;10.112;2022-08-19T09:18:42;31.42;;;18.65;;
69856;SDS011;57147;53.582;10.112;2022-08-19T09:23:44;31.40;;;18.38;;
69856;SDS011;57147;53.582;10.112;2022-08-19T09:28:51;31.13;;;17.73;;
69856;SDS011;57147;53.582;10.112;2022-08-19T09:33:53;33.58;;;20.13;;
69856;SDS011;57147;53.582;10.112;2022-08-19T09:38:55;29.15;;;17.33;;
69856;SDS011;57147;53.582;10.112;2022-08-19T09:43:58;31.60;;;18.65;;
69856;SDS011;57147;53.582;10.112;2022-08-19T09:48:59;30.10;;;18.70;;
69856;SDS011;57147;53.582;10.112;2022-08-19T09:54:01;27.83;;;16.05;;
69856;SDS011;57147;53.582;10.112;2022-08-19T09:59:05;26.08;;;17.25;;
69856;SDS011;57147;53.582;10.112;2022-08-19T10:04:06;28.20;;;17.13;;
69856;SDS011;57147;53.582;10.112;2022-08-19T10:09:07;25.90;;;16.58;;
69856;SDS011;57147;53.582;10.112;2022-08-19T10:14:11;23.95;;;15.30;;
69856;SDS011;57147;53.582;10.112;2022-08-19T10:19:12;27.35;;;15.65;;
69856;SDS011;57147;53.582;10.112;2022-08-19T10:24:13;27.92;;;16.95;;
69856;SDS011;57147;53.582;10.112;2022-08-19T10:29:16;29.60;;;16.17;;
69856;SDS011;57147;53.582;10.112;2022-08-19T10:34:16;24.40;;;15.43;;
69856;SDS011;57147;53.582;10.112;2022-08-19T10:39:17;31.25;;;16.02;;
69856;SDS011;57147;53.582;10.112;2022-08-19T10:44:20;27.98;;;17.02;;
69856;SDS011;57147;53.582;10.112;2022-08-19T10:49:21;33.45;;;17.38;;
69856;SDS011;57147;53.582;10.112;2022-08-19T10:54:22;26.80;;;16.60;;
69856;SDS011;57147;53.582;10.112;2022-08-19T10:59:27;30.88;;;17.35;;
69856;SDS011;57147;53.582;10.112;2022-08-19T11:04:28;24.35;;;15.68;;
69856;SDS011;57147;53.582;10.112;2022-08-19T11:09:29;28.88;;;16.67;;
69856;SDS011;57147;53.582;10.112;2022-08-19T11:14:33;24.45;;;15.25;;
69856;SDS011;57147;53.582;10.112;2022-08-19T11:19:34;28.33;;;18.05;;
69856;SDS011;57147;53.582;10.112;2022-08-19T11:24:35;26.23;;;17.08;;
69856;SDS011;57147;53.582;10.112;2022-08-19T11:29:39;28.40;;;18.95;;
69856;SDS011;57147;53.582;10.112;2022-08-19T11:34:40;32.75;;;19.00;;
69856;SDS011;57147;53.582;10.112;2022-08-19T11:39:41;25.48;;;16.55;;
69856;SDS011;57147;53.582;10.112;2022-08-19T11:44:44;23.88;;;16.35;;
69856;SDS011;57147;53.582;10.112;2022-08-19T11:49:45;25.45;;;16.27;;
69856;SDS011;57147;53.582;10.112;2022-08-19T11:54:46;28.35;;;16.60;;
69856;SDS011;57147;53.582;10.112;2022-08-19T11:59:52;25.02;;;16.83;;
69856;SDS011;57147;53.582;10.112;2022-08-19T12:04:52;23.58;;;16.50;;
69856;SDS011;57147;53.582;10.112;2022-08-19T12:09:53;24.38;;;17.10;;
69856;SDS011;57147;53.582;10.112;2022-08-19T12:14:58;22.52;;;15.27;;
69856;SDS011;57147;53.582;10.112;2022-08-19T12:19:59;20.25;;;15.18;;
69856;SDS011;57147;53.582;10.112;2022-08-19T12:25:00;20.23;;;14.55;;
69856;SDS011;57147;53.582;10.112;2022-08-19T12:30:04;18.58;;;13.15;;
69856;SDS011;57147;53.582;10.112;2022-08-19T12:35:07;16.90;;;11.50;;
69856;SDS011;57147;53.582;10.112;2022-08-19T12:40:09;18.10;;;14.07;;
69856;SDS011;57147;53.582;10.112;2022-08-19T12:45:15;16.25;;;13.48;;
69856;SDS011;57147;53.582;10.112;2022-08-19T12:50:16;19.73;;;12.52;;
69856;SDS011;57147;53.582;10.112;2022-08-19T12:55:17;19.42;;;15.52;;
69856;SDS011;57147;53.582;10.112;2022-08-19T13:00:20;17.60;;;11.95;;
69856;SDS011;57147;53.582;10.112;2022-08-19T13:05:23;15.60;;;11.95;;
69856;SDS011;57147;53.582;10.112;2022-08-19T13:10:28;17.58;;;12.57;;
69856;SDS011;57147;53.582;10.112;2022-08-19T13:15:34;17.25;;;12.85;;
69856;SDS011;57147;53.582;10.112;2022-08-19T13:20:37;14.73;;;11.70;;
69856;SDS011;57147;53.582;10.112;2022-08-19T13:25:38;17.75;;;13.25;;
69856;SDS011;57147;53.582;10.112;2022-08-19T13:30:41;17.52;;;12.25;;
69856;SDS011;57147;53.582;10.112;2022-08-19T13:35:43;13.13;;;10.05;;
69856;SDS011;57147;53.582;10.112;2022-08-19T13:40:46;11.82;;;9.95;;
69856;SDS011;57147;53.582;10.112;2022-08-19T13:45:50;12.90;;;11.07;;
69856;SDS011;57147;53.582;10.112;2022-08-19T13:50:51;17.15;;;12.57;;
69856;SDS011;57147;53.582;10.112;2022-08-19T13:55:53;15.02;;;11.60;;
69856;SDS011;57147;53.582;10.112;2022-08-19T14:00:56;13.60;;;11.73;;
69856;SDS011;57147;53.582;10.112;2022-08-19T14:10:57;14.73;;;12.00;;
69856;SDS011;57147;53.582;10.112;2022-08-19T14:16:01;13.40;;;9.05;;
69856;SDS011;57147;53.582;10.112;2022-08-19T14:21:08;14.68;;;11.63;;
69856;SDS011;57147;53.582;10.112;2022-08-19T14:26:15;11.52;;;9.82;;
69856;SDS011;57147;53.582;10.112;2022-08-19T14:31:20;11.68;;;9.88;;
69856;SDS011;57147;53.582;10.112;2022-08-19T14:36:21;13.70;;;10.85;;
69856;SDS011;57147;53.582;10.112;2022-08-19T14:41:22;13.00;;;8.15;;
69856;SDS011;57147;53.582;10.112;2022-08-19T14:46:26;12.38;;;10.25;;
69856;SDS011;57147;53.582;10.112;2022-08-19T14:51:29;12.05;;;9.35;;
69856;SDS011;57147;53.582;10.112;2022-08-19T14:56:30;13.88;;;11.48;;
69856;SDS011;57147;53.582;10.112;2022-08-19T15:01:33;16.88;;;12.63;;
69856;SDS011;57147;53.582;10.112;2022-08-19T15:11:35;14.10;;;12.50;;
69856;SDS011;57147;53.582;10.112;2022-08-19T15:16:38;13.63;;;11.27;;
69856;SDS011;57147;53.582;10.112;2022-08-19T15:21:39;11.20;;;10.00;;
69856;SDS011;57147;53.582;10.112;2022-08-19T15:26:40;12.45;;;11.15;;
69856;SDS011;57147;53.582;10.112;2022-08-19T15:31:43;13.38;;;11.60;;
69856;SDS011;57147;53.582;10.112;2022-08-19T15:36:43;13.48;;;10.02;;
69856;SDS011;57147;53.582;10.112;2022-08-19T15:41:44;13.95;;;11.07;;
69856;SDS011;57147;53.582;10.112;2022-08-19T15:46:48;14.38;;;11.23;;
69856;SDS011;57147;53.582;10.112;2022-08-19T15:51:50;13.48;;;11.73;;
69856;SDS011;57147;53.582;10.112;2022-08-19T15:56:51;13.48;;;11.02;;
69856;SDS011;57147;53.582;10.112;2022-08-19T16:01:54;13.25;;;11.63;;
69856;SDS011;57147;53.582;10.112;2022-08-19T16:06:57;10.23;;;9.02;;
69856;SDS011;57147;53.582;10.112;2022-08-19T16:12:00;12.18;;;9.70;;
69856;SDS011;57147;53.582;10.112;2022-08-19T16:22:05;10.65;;;9.55;;
69856;SDS011;57147;53.582;10.112;2022-08-19T16:27:06;10.10;;;8.05;;
69856;SDS011;57147;53.582;10.112;2022-08-19T16:32:10;8.50;;;7.70;;
69856;SDS011;57147;53.582;10.112;2022-08-19T16:37:11;10.80;;;8.13;;
69856;SDS011;57147;53.582;10.112;2022-08-19T16:42:12;10.02;;;9.13;;
69856;SDS011;57147;53.582;10.112;2022-08-19T16:47:16;8.77;;;7.88;;
69856;SDS011;57147;53.582;10.112;2022-08-19T16:52:17;10.80;;;7.93;;
69856;SDS011;57147;53.582;10.112;2022-08-19T16:57:18;9.82;;;8.75;;
69856;SDS011;57147;53.582;10.112;2022-08-19T17:02:21;12.82;;;9.02;;
69856;SDS011;57147;53.582;10.112;2022-08-19T17:12:22;8.67;;;7.37;;
69856;SDS011;57147;53.582;10.112;2022-08-19T17:17:26;8.13;;;7.00;;
69856;SDS011;57147;53.582;10.112;2022-08-19T17:22:26;10.43;;;7.90;;
69856;SDS011;57147;53.582;10.112;2022-08-19T17:27:28;8.85;;;6.43;;
69856;SDS011;57147;53.582;10.112;2022-08-19T17:32:31;8.85;;;7.88;;
69856;SDS011;57147;53.582;10.112;2022-08-19T17:37:32;9.52;;;8.50;;
69856;SDS011;57147;53.582;10.112;2022-08-19T17:42:32;8.32;;;7.35;;
69856;SDS011;57147;53.582;10.112;2022-08-19T17:47:36;9.48;;;8.23;;
69856;SDS011;57147;53.582;10.112;2022-08-19T17:52:38;9.85;;;7.95;;
69856;SDS011;57147;53.582;10.112;2022-08-19T17:57:39;9.48;;;8.32;;
69856;SDS011;57147;53.582;10.112;2022-08-19T18:02:49;9.25;;;7.78;;
69856;SDS011;57147;53.582;10.112;2022-08-19T18:07:52;9.73;;;8.68;;
69856;SDS011;57147;53.582;10.112;2022-08-19T18:18:09;10.25;;;9.10;;
69856;SDS011;57147;53.582;10.112;2022-08-19T18:23:09;10.02;;;8.90;;
69856;SDS011;57147;53.582;10.112;2022-08-19T18:28:10;9.93;;;8.32;;
69856;SDS011;57147;53.582;10.112;2022-08-19T18:33:13;11.82;;;9.40;;
69856;SDS011;57147;53.582;10.112;2022-08-19T18:38:14;15.02;;;11.70;;
69856;SDS011;57147;53.582;10.112;2022-08-19T18:43:16;12.15;;;10.45;;
69856;SDS011;57147;53.582;10.112;2022-08-19T18:48:19;15.25;;;12.25;;
69856;SDS011;57147;53.582;10.112;2022-08-19T18:53:20;16.75;;;14.93;;
69856;SDS011;57147;53.582;10.112;2022-08-19T18:58:20;16.15;;;14.20;;
69856;SDS011;57147;53.582;10.112;2022-08-19T19:03:24;14.73;;;12.77;;
69856;SDS011;57147;53.582;10.112;2022-08-19T19:08:25;11.63;;;10.48;;
69856;SDS011;57147;53.582;10.112;2022-08-19T19:13:26;14.57;;;13.02;;
69856;SDS011;57147;53.582;10.112;2022-08-19T19:18:29;17.75;;;15.02;;
69856;SDS011;57147;53.582;10.112;2022-08-19T19:23:30;18.13;;;15.13;;
69856;SDS011;57147;53.582;10.112;2022-08-19T19:28:32;14.35;;;12.65;;
69856;SDS011;57147;53.582;10.112;2022-08-19T19:33:35;14.73;;;12.30;;
69856;SDS011;57147;53.582;10.112;2022-08-19T19:38:35;19.30;;;15.73;;
69856;SDS011;57147;53.582;10.112;2022-08-19T19:43:36;17.90;;;15.77;;
69856;SDS011;57147;53.582;10.112;2022-08-19T19:48:39;17.73;;;13.95;;
69856;SDS011;57147;53.582;10.112;2022-08-19T19:53:40;15.32;;;13.73;;
69856;SDS011;57147;53.582;10.112;2022-08-19T19:58:40;15.10;;;13.23;;
69856;SDS011;57147;53.582;10.112;2022-08-19T20:03:44;16.90;;;14.75;;
69856;SDS011;57147;53.582;10.112;2022-08-19T20:08:44;16.25;;;14.55;;
69856;SDS011;57147;53.582;10.112;2022-08-19T20:13:45;16.27;;;14.00;;
69856;SDS011;57147;53.582;10.112;2022-08-19T20:18:48;19.42;;;16.70;;
69856;SDS011;57147;53.582;10.112;2022-08-19T20:23:49;20.40;;;16.92;;
69856;SDS011;57147;53.582;10.112;2022-08-19T20:28:50;18.98;;;16.98;;
69856;SDS011;57147;53.582;10.112;2022-08-19T20:33:53;21.88;;;17.02;;
69856;SDS011;57147;53.582;10.112;2022-08-19T20:38:54;18.58;;;16.67;;
69856;SDS011;57147;53.582;10.112;2022-08-19T20:43:54;17.17;;;15.07;;
69856;SDS011;57147;53.582;10.112;2022-08-19T20:48:58;17.02;;;14.93;;
69856;SDS011;57147;53.582;10.112;2022-08-19T20:58:59;17.43;;;15.43;;
69856;SDS011;57147;53.582;10.112;2022-08-19T21:04:02;18.83;;;16.08;;
69856;SDS011;57147;53.582;10.112;2022-08-19T21:09:03;18.17;;;15.50;;
69856;SDS011;57147;53.582;10.112;2022-08-19T21:14:04;21.08;;;17.27;;
69856;SDS011;57147;53.582;10.112;2022-08-19T21:19:08;19.58;;;16.50;;
69856;SDS011;57147;53.582;10.112;2022-08-19T21:24:08;21.70;;;18.48;;
69856;SDS011;57147;53.582;10.112;2022-08-19T21:29:09;25.50;;;20.55;;
69856;SDS011;57147;53.582;10.112;2022-08-19T21:34:12;21.85;;;18.85;;
69856;SDS011;57147;53.582;10.112;2022-08-19T21:39:13;23.95;;;19.77;;
69856;SDS011;57147;53.582;10.112;2022-08-19T21:44:14;21.80;;;19.40;;
69856;SDS011;57147;53.582;10.112;2022-08-19T21:49:17;23.13;;;18.95;;
69856;SDS011;57147;53.582;10.112;2022-08-19T21:54:18;21.00;;;18.48;;
69856;SDS011;57147;53.582;10.112;2022-08-19T21:59:18;18.55;;;16.33;;
69856;SDS011;57147;53.582;10.112;2022-08-19T22:04:22;19.75;;;17.65;;
69856;SDS011;57147;53.582;10.112;2022-08-19T22:09:22;18.73;;;16.45;;
69856;SDS011;57147;53.582;10.112;2022-08-19T22:14:23;19.75;;;16.65;;
69856;SDS011;57147;53.582;10.112;2022-08-19T22:19:26;16.67;;;13.55;;
69856;SDS011;57147;53.582;10.112;2022-08-19T22:24:27;18.08;;;15.95;;
69856;SDS011;57147;53.582;10.112;2022-08-19T22:29:29;18.52;;;16.38;;
69856;SDS011;57147;53.582;10.112;2022-08-19T22:34:32;20.92;;;16.05;;
69856;SDS011;57147;53.582;10.112;2022-08-19T22:39:33;21.88;;;18.30;;
69856;SDS011;57147;53.582;10.112;2022-08-19T22:44:33;20.27;;;16.55;;
69856;SDS011;57147;53.582;10.112;2022-08-19T22:49:37;18.58;;;16.67;;
69856;SDS011;57147;53.582;10.112;2022-08-19T22:54:37;18.73;;;16.20;;
69856;SDS011;57147;53.582;10.112;2022-08-19T22:59:38;19.50;;;17.23;;
69856;SDS011;57147;53.582;10.112;2022-08-19T23:04:41;21.50;;;18.52;;
69856;SDS011;57147;53.582;10.112;2022-08-19T23:09:42;20.85;;;17.65;;
69856;SDS011;57147;53.582;10.112;2022-08-19T23:14:43;20.42;;;16.30;;
69856;SDS011;57147;53.582;10.112;2022-08-19T23:19:46;17.42;;;15.52;;
69856;SDS011;57147;53.582;10.112;2022-08-19T23:24:47;23.17;;;19.48;;
69856;SDS011;57147;53.582;10.112;2022-08-19T23:29:47;20.17;;;16.27;;
69856;SDS011;57147;53.582;10.112;2022-08-19T23:34:51;19.75;;;17.65;;
69856;SDS011;57147;53.582;10.112;2022-08-19T23:39:53;19.58;;;17.33;;
69856;SDS011;57147;53.582;10.112;2022-08-19T23:44:58;21.80;;;17.77;;
69856;SDS011;57147;53.582;10.112;2022-08-19T23:50:02;21.90;;;17.85;;
69856;SDS011;57147;53.582;10.112;2022-08-19T23:55:05;20.48;;;17.45;;
